sensor_id;sensor_type;location;lat;lon;timestamp;P1;durP1;ratioP1;P2;durP2;ratioP2
32295;SDS011;18781;51.550;5.418;2023-06-26T08:49:21;9.38;;;2.10;;
32295;SDS011;18781;51.550;5.418;2023-06-26T08:51:56;8.18;;;1.92;;
32295;SDS011;18781;51.550;5.418;2023-06-26T08:54:36;10.35;;;1.75;;
32295;SDS011;18781;51.550;5.418;2023-06-26T08:57:08;8.48;;;1.75;;
32295;SDS011;18781;51.550;5.418;2023-06-26T08:59:33;7.20;;;1.80;;
32295;SDS011;18781;51.550;5.418;2023-06-26T09:01:59;5.13;;;1.67;;
32295;SDS011;18781;51.550;5.418;2023-06-26T09:04:25;11.07;;;1.88;;
32295;SDS011;18781;51.550;5.418;2023-06-26T09:06:51;10.55;;;2.10;;
32295;SDS011;18781;51.550;5.418;2023-06-26T09:09:17;11.82;;;2.15;;
32295;SDS011;18781;51.550;5.418;2023-06-26T09:11:42;13.30;;;1.92;;
32295;SDS011;18781;51.550;5.418;2023-06-26T09:14:08;4.80;;;1.40;;
32295;SDS011;18781;51.550;5.418;2023-06-26T09:16:41;7.53;;;1.90;;
32295;SDS011;18781;51.550;5.418;2023-06-26T09:19:10;5.38;;;1.70;;
32295;SDS011;18781;51.550;5.418;2023-06-26T09:21:37;7.47;;;1.95;;
32295;SDS011;18781;51.550;5.418;2023-06-26T09:24:04;7.93;;;2.00;;
32295;SDS011;18781;51.550;5.418;2023-06-26T09:26:32;7.07;;;1.80;;
32295;SDS011;18781;51.550;5.418;2023-06-26T09:28:59;4.57;;;1.50;;
32295;SDS011;18781;51.550;5.418;2023-06-26T09:31:25;7.38;;;1.80;;
32295;SDS011;18781;51.550;5.418;2023-06-26T09:33:51;10.02;;;1.67;;
32295;SDS011;18781;51.550;5.418;2023-06-26T09:36:23;6.15;;;1.80;;
32295;SDS011;18781;51.550;5.418;2023-06-26T09:38:51;10.27;;;2.00;;
32295;SDS011;18781;51.550;5.418;2023-06-26T09:41:17;5.50;;;1.58;;
32295;SDS011;18781;51.550;5.418;2023-06-26T09:43:46;9.43;;;1.98;;
32295;SDS011;18781;51.550;5.418;2023-06-26T09:46:28;9.95;;;1.83;;
32295;SDS011;18781;51.550;5.418;2023-06-26T09:49:05;9.15;;;1.83;;
32295;SDS011;18781;51.550;5.418;2023-06-26T09:51:31;6.78;;;1.48;;
32295;SDS011;18781;51.550;5.418;2023-06-26T09:53:57;4.43;;;1.67;;
32295;SDS011;18781;51.550;5.418;2023-06-26T09:56:28;13.18;;;1.67;;
32295;SDS011;18781;51.550;5.418;2023-06-26T09:58:58;7.40;;;1.58;;
32295;SDS011;18781;51.550;5.418;2023-06-26T10:01:27;8.43;;;1.48;;
32295;SDS011;18781;51.550;5.418;2023-06-26T10:03:54;8.13;;;1.90;;
32295;SDS011;18781;51.550;5.418;2023-06-26T10:06:24;11.18;;;1.80;;
32295;SDS011;18781;51.550;5.418;2023-06-26T10:09:02;10.80;;;1.40;;
32295;SDS011;18781;51.550;5.418;2023-06-26T10:11:41;4.47;;;1.20;;
32295;SDS011;18781;51.550;5.418;2023-06-26T10:14:16;4.63;;;1.35;;
32295;SDS011;18781;51.550;5.418;2023-06-26T10:16:42;5.47;;;1.40;;
32295;SDS011;18781;51.550;5.418;2023-06-26T10:19:09;6.60;;;1.40;;
32295;SDS011;18781;51.550;5.418;2023-06-26T10:21:37;8.88;;;1.63;;
32295;SDS011;18781;51.550;5.418;2023-06-26T10:24:06;7.88;;;1.63;;
32295;SDS011;18781;51.550;5.418;2023-06-26T10:26:33;5.88;;;1.45;;
32295;SDS011;18781;51.550;5.418;2023-06-26T10:29:03;13.85;;;1.65;;
32295;SDS011;18781;51.550;5.418;2023-06-26T10:31:30;6.72;;;1.67;;
32295;SDS011;18781;51.550;5.418;2023-06-26T10:33:56;6.30;;;1.60;;
32295;SDS011;18781;51.550;5.418;2023-06-26T10:36:27;4.70;;;1.52;;
32295;SDS011;18781;51.550;5.418;2023-06-26T10:38:55;7.72;;;1.80;;
32295;SDS011;18781;51.550;5.418;2023-06-26T10:41:23;10.88;;;1.58;;
32295;SDS011;18781;51.550;5.418;2023-06-26T10:43:50;8.38;;;1.67;;
32295;SDS011;18781;51.550;5.418;2023-06-26T10:46:17;5.93;;;1.30;;
32295;SDS011;18781;51.550;5.418;2023-06-26T10:49:00;8.68;;;1.58;;
32295;SDS011;18781;51.550;5.418;2023-06-26T10:51:26;5.18;;;1.42;;
32295;SDS011;18781;51.550;5.418;2023-06-26T10:53:56;5.78;;;1.40;;
32295;SDS011;18781;51.550;5.418;2023-06-26T10:56:40;6.50;;;1.85;;
32295;SDS011;18781;51.550;5.418;2023-06-26T10:59:11;8.73;;;1.48;;
32295;SDS011;18781;51.550;5.418;2023-06-26T11:01:43;7.68;;;1.80;;
32295;SDS011;18781;51.550;5.418;2023-06-26T11:04:11;3.38;;;1.30;;
32295;SDS011;18781;51.550;5.418;2023-06-26T11:06:39;4.57;;;1.40;;
32295;SDS011;18781;51.550;5.418;2023-06-26T11:14:17;7.18;;;1.35;;
32295;SDS011;18781;51.550;5.418;2023-06-26T11:16:43;14.63;;;1.60;;
32295;SDS011;18781;51.550;5.418;2023-06-26T11:19:10;9.70;;;1.63;;
32295;SDS011;18781;51.550;5.418;2023-06-26T11:21:37;6.38;;;1.58;;
32295;SDS011;18781;51.550;5.418;2023-06-26T11:24:04;10.38;;;2.00;;
32295;SDS011;18781;51.550;5.418;2023-06-26T11:26:31;8.38;;;1.70;;
32295;SDS011;18781;51.550;5.418;2023-06-26T11:29:03;9.18;;;1.52;;
32295;SDS011;18781;51.550;5.418;2023-06-26T11:31:32;7.95;;;1.73;;
32295;SDS011;18781;51.550;5.418;2023-06-26T11:34:00;9.30;;;1.65;;
32295;SDS011;18781;51.550;5.418;2023-06-26T11:36:27;5.10;;;1.63;;
32295;SDS011;18781;51.550;5.418;2023-06-26T11:39:00;9.38;;;1.50;;
32295;SDS011;18781;51.550;5.418;2023-06-26T11:41:28;5.63;;;1.50;;
32295;SDS011;18781;51.550;5.418;2023-06-26T11:43:55;10.55;;;1.50;;
32295;SDS011;18781;51.550;5.418;2023-06-26T11:46:21;8.25;;;1.60;;
32295;SDS011;18781;51.550;5.418;2023-06-26T11:48:47;8.82;;;2.08;;
32295;SDS011;18781;51.550;5.418;2023-06-26T11:51:14;13.38;;;2.13;;
32295;SDS011;18781;51.550;5.418;2023-06-26T11:53:40;11.60;;;1.60;;
32295;SDS011;18781;51.550;5.418;2023-06-26T11:56:07;6.72;;;1.35;;
32295;SDS011;18781;51.550;5.418;2023-06-26T11:58:54;7.10;;;1.77;;
32295;SDS011;18781;51.550;5.418;2023-06-26T12:01:38;7.65;;;1.90;;
32295;SDS011;18781;51.550;5.418;2023-06-26T12:04:06;4.13;;;1.50;;
32295;SDS011;18781;51.550;5.418;2023-06-26T12:06:34;6.30;;;1.93;;
32295;SDS011;18781;51.550;5.418;2023-06-26T12:09:02;8.75;;;2.13;;
32295;SDS011;18781;51.550;5.418;2023-06-26T12:11:36;9.15;;;1.80;;
32295;SDS011;18781;51.550;5.418;2023-06-26T12:14:05;8.73;;;1.90;;
32295;SDS011;18781;51.550;5.418;2023-06-26T12:16:31;7.90;;;1.52;;
32295;SDS011;18781;51.550;5.418;2023-06-26T12:18:59;11.07;;;1.77;;
32295;SDS011;18781;51.550;5.418;2023-06-26T12:24:06;5.28;;;1.70;;
32295;SDS011;18781;51.550;5.418;2023-06-26T12:26:35;3.45;;;1.50;;
32295;SDS011;18781;51.550;5.418;2023-06-26T12:29:05;8.75;;;1.58;;
32295;SDS011;18781;51.550;5.418;2023-06-26T12:31:32;7.38;;;1.55;;
32295;SDS011;18781;51.550;5.418;2023-06-26T12:33:58;7.28;;;2.08;;
32295;SDS011;18781;51.550;5.418;2023-06-26T12:36:25;6.65;;;1.75;;
32295;SDS011;18781;51.550;5.418;2023-06-26T12:38:52;8.43;;;2.03;;
32295;SDS011;18781;51.550;5.418;2023-06-26T12:41:19;6.75;;;1.67;;
32295;SDS011;18781;51.550;5.418;2023-06-26T12:43:45;7.70;;;1.70;;
32295;SDS011;18781;51.550;5.418;2023-06-26T12:46:11;8.00;;;1.95;;
32295;SDS011;18781;51.550;5.418;2023-06-26T12:48:40;10.05;;;1.90;;
32295;SDS011;18781;51.550;5.418;2023-06-26T12:51:12;5.10;;;1.40;;
32295;SDS011;18781;51.550;5.418;2023-06-26T12:53:39;10.70;;;1.73;;
32295;SDS011;18781;51.550;5.418;2023-06-26T12:56:06;5.10;;;1.40;;
32295;SDS011;18781;51.550;5.418;2023-06-26T12:58:35;8.95;;;1.70;;
32295;SDS011;18781;51.550;5.418;2023-06-26T13:01:06;7.38;;;1.77;;
32295;SDS011;18781;51.550;5.418;2023-06-26T13:03:42;7.60;;;1.80;;
32295;SDS011;18781;51.550;5.418;2023-06-26T13:06:07;3.80;;;1.38;;
32295;SDS011;18781;51.550;5.418;2023-06-26T13:08:33;6.57;;;1.40;;
32295;SDS011;18781;51.550;5.418;2023-06-26T13:10:59;3.20;;;1.38;;
32295;SDS011;18781;51.550;5.418;2023-06-26T13:13:25;5.88;;;1.48;;
32295;SDS011;18781;51.550;5.418;2023-06-26T13:15:51;6.75;;;1.35;;
32295;SDS011;18781;51.550;5.418;2023-06-26T13:18:16;10.15;;;1.70;;
32295;SDS011;18781;51.550;5.418;2023-06-26T13:20:42;8.70;;;1.80;;
32295;SDS011;18781;51.550;5.418;2023-06-26T13:23:08;6.65;;;1.40;;
32295;SDS011;18781;51.550;5.418;2023-06-26T13:25:33;7.03;;;1.60;;
32295;SDS011;18781;51.550;5.418;2023-06-26T13:27:59;6.50;;;1.48;;
32295;SDS011;18781;51.550;5.418;2023-06-26T13:30:24;11.73;;;1.77;;
32295;SDS011;18781;51.550;5.418;2023-06-26T13:32:50;7.60;;;1.55;;
32295;SDS011;18781;51.550;5.418;2023-06-26T13:35:16;11.00;;;1.73;;
32295;SDS011;18781;51.550;5.418;2023-06-26T13:37:41;9.75;;;1.75;;
32295;SDS011;18781;51.550;5.418;2023-06-26T13:40:07;6.40;;;1.60;;
32295;SDS011;18781;51.550;5.418;2023-06-26T13:42:34;11.30;;;1.80;;
32295;SDS011;18781;51.550;5.418;2023-06-26T13:45:01;3.15;;;1.30;;
32295;SDS011;18781;51.550;5.418;2023-06-26T13:47:27;3.78;;;1.13;;
32295;SDS011;18781;51.550;5.418;2023-06-26T13:49:53;8.63;;;1.55;;
32295;SDS011;18781;51.550;5.418;2023-06-26T13:52:19;10.75;;;1.60;;
32295;SDS011;18781;51.550;5.418;2023-06-26T13:54:44;10.63;;;1.80;;
32295;SDS011;18781;51.550;5.418;2023-06-26T13:57:10;5.25;;;1.30;;
32295;SDS011;18781;51.550;5.418;2023-06-26T13:59:37;4.78;;;1.30;;
32295;SDS011;18781;51.550;5.418;2023-06-26T14:02:04;12.27;;;1.67;;
32295;SDS011;18781;51.550;5.418;2023-06-26T14:04:30;6.72;;;1.60;;
32295;SDS011;18781;51.550;5.418;2023-06-26T14:06:55;6.07;;;1.65;;
32295;SDS011;18781;51.550;5.418;2023-06-26T14:09:21;5.13;;;1.50;;
32295;SDS011;18781;51.550;5.418;2023-06-26T14:11:47;5.57;;;1.40;;
32295;SDS011;18781;51.550;5.418;2023-06-26T14:14:13;6.32;;;1.48;;
32295;SDS011;18781;51.550;5.418;2023-06-26T14:16:38;3.30;;;1.60;;
32295;SDS011;18781;51.550;5.418;2023-06-26T14:19:05;6.90;;;1.35;;
32295;SDS011;18781;51.550;5.418;2023-06-26T14:21:30;3.53;;;1.20;;
32295;SDS011;18781;51.550;5.418;2023-06-26T14:23:58;4.70;;;1.50;;
32295;SDS011;18781;51.550;5.418;2023-06-26T14:26:23;6.57;;;1.50;;
32295;SDS011;18781;51.550;5.418;2023-06-26T14:28:49;6.95;;;1.50;;
32295;SDS011;18781;51.550;5.418;2023-06-26T14:31:15;8.77;;;1.60;;
32295;SDS011;18781;51.550;5.418;2023-06-26T14:33:40;9.00;;;1.52;;
32295;SDS011;18781;51.550;5.418;2023-06-26T14:36:06;2.92;;;1.40;;
32295;SDS011;18781;51.550;5.418;2023-06-26T14:38:31;7.15;;;1.58;;
32295;SDS011;18781;51.550;5.418;2023-06-26T14:40:57;5.72;;;1.40;;
32295;SDS011;18781;51.550;5.418;2023-06-26T14:43:22;5.18;;;1.33;;
32295;SDS011;18781;51.550;5.418;2023-06-26T14:45:49;6.07;;;1.63;;
32295;SDS011;18781;51.550;5.418;2023-06-26T14:48:14;6.10;;;1.52;;
32295;SDS011;18781;51.550;5.418;2023-06-26T14:50:40;2.50;;;1.17;;
32295;SDS011;18781;51.550;5.418;2023-06-26T14:53:05;5.72;;;1.50;;
32295;SDS011;18781;51.550;5.418;2023-06-26T14:55:31;5.82;;;1.20;;
32295;SDS011;18781;51.550;5.418;2023-06-26T14:57:57;5.72;;;1.60;;
32295;SDS011;18781;51.550;5.418;2023-06-26T15:00:22;4.32;;;1.30;;
32295;SDS011;18781;51.550;5.418;2023-06-26T15:02:48;3.88;;;1.40;;
32295;SDS011;18781;51.550;5.418;2023-06-26T15:05:14;4.85;;;1.20;;
32295;SDS011;18781;51.550;5.418;2023-06-26T15:07:40;5.35;;;1.33;;
32295;SDS011;18781;51.550;5.418;2023-06-26T15:10:06;1.88;;;1.10;;
32295;SDS011;18781;51.550;5.418;2023-06-26T15:12:32;4.38;;;1.38;;
32295;SDS011;18781;51.550;5.418;2023-06-26T15:14:57;3.80;;;1.25;;
32295;SDS011;18781;51.550;5.418;2023-06-26T15:17:23;5.78;;;1.40;;
32295;SDS011;18781;51.550;5.418;2023-06-26T15:19:48;8.18;;;1.30;;
32295;SDS011;18781;51.550;5.418;2023-06-26T15:22:17;5.00;;;1.30;;
32295;SDS011;18781;51.550;5.418;2023-06-26T15:24:43;6.13;;;1.20;;
32295;SDS011;18781;51.550;5.418;2023-06-26T15:27:08;4.07;;;1.25;;
32295;SDS011;18781;51.550;5.418;2023-06-26T15:29:34;4.65;;;1.63;;
32295;SDS011;18781;51.550;5.418;2023-06-26T15:31:59;5.15;;;1.45;;
32295;SDS011;18781;51.550;5.418;2023-06-26T15:34:25;5.53;;;1.60;;
32295;SDS011;18781;51.550;5.418;2023-06-26T15:36:51;3.13;;;1.25;;
32295;SDS011;18781;51.550;5.418;2023-06-26T15:39:16;7.90;;;1.73;;
32295;SDS011;18781;51.550;5.418;2023-06-26T15:41:42;5.40;;;1.40;;
32295;SDS011;18781;51.550;5.418;2023-06-26T15:44:09;3.92;;;1.40;;
32295;SDS011;18781;51.550;5.418;2023-06-26T15:46:34;7.07;;;1.48;;
32295;SDS011;18781;51.550;5.418;2023-06-26T15:49:00;4.72;;;1.40;;
32295;SDS011;18781;51.550;5.418;2023-06-26T15:51:25;5.00;;;1.48;;
32295;SDS011;18781;51.550;5.418;2023-06-26T15:53:51;3.95;;;1.40;;
32295;SDS011;18781;51.550;5.418;2023-06-26T15:56:17;6.32;;;1.30;;
32295;SDS011;18781;51.550;5.418;2023-06-26T15:58:43;4.63;;;1.40;;
32295;SDS011;18781;51.550;5.418;2023-06-26T16:01:11;7.15;;;1.40;;
32295;SDS011;18781;51.550;5.418;2023-06-26T16:03:38;5.53;;;1.23;;
32295;SDS011;18781;51.550;5.418;2023-06-26T16:06:04;8.40;;;1.42;;
32295;SDS011;18781;51.550;5.418;2023-06-26T16:08:30;4.50;;;1.20;;
32295;SDS011;18781;51.550;5.418;2023-06-26T16:10:56;3.45;;;1.35;;
32295;SDS011;18781;51.550;5.418;2023-06-26T16:13:22;5.10;;;1.30;;
32295;SDS011;18781;51.550;5.418;2023-06-26T16:15:48;2.92;;;1.27;;
32295;SDS011;18781;51.550;5.418;2023-06-26T16:18:14;3.15;;;1.42;;
32295;SDS011;18781;51.550;5.418;2023-06-26T16:20:40;8.07;;;1.20;;
32295;SDS011;18781;51.550;5.418;2023-06-26T16:23:05;5.00;;;1.40;;
32295;SDS011;18781;51.550;5.418;2023-06-26T16:25:32;4.70;;;1.13;;
32295;SDS011;18781;51.550;5.418;2023-06-26T16:27:58;6.95;;;1.25;;
32295;SDS011;18781;51.550;5.418;2023-06-26T16:30:23;9.45;;;1.40;;
32295;SDS011;18781;51.550;5.418;2023-06-26T16:32:49;4.97;;;1.30;;
32295;SDS011;18781;51.550;5.418;2023-06-26T16:35:15;5.43;;;1.48;;
32295;SDS011;18781;51.550;5.418;2023-06-26T16:37:40;4.35;;;1.30;;
32295;SDS011;18781;51.550;5.418;2023-06-26T16:40:06;5.22;;;1.23;;
32295;SDS011;18781;51.550;5.418;2023-06-26T16:42:32;3.28;;;1.20;;
32295;SDS011;18781;51.550;5.418;2023-06-26T16:44:58;4.43;;;1.38;;
32295;SDS011;18781;51.550;5.418;2023-06-26T16:47:24;7.00;;;1.20;;
32295;SDS011;18781;51.550;5.418;2023-06-26T16:49:49;4.75;;;1.40;;
32295;SDS011;18781;51.550;5.418;2023-06-26T16:52:15;5.63;;;1.48;;
32295;SDS011;18781;51.550;5.418;2023-06-26T16:54:41;5.65;;;1.45;;
32295;SDS011;18781;51.550;5.418;2023-06-26T16:57:06;4.90;;;1.25;;
32295;SDS011;18781;51.550;5.418;2023-06-26T16:59:32;4.45;;;1.55;;
32295;SDS011;18781;51.550;5.418;2023-06-26T17:01:57;2.47;;;1.20;;
32295;SDS011;18781;51.550;5.418;2023-06-26T17:04:27;4.90;;;1.20;;
32295;SDS011;18781;51.550;5.418;2023-06-26T17:06:54;3.10;;;1.48;;
32295;SDS011;18781;51.550;5.418;2023-06-26T17:09:20;3.20;;;1.13;;
32295;SDS011;18781;51.550;5.418;2023-06-26T17:11:46;4.30;;;1.40;;
32295;SDS011;18781;51.550;5.418;2023-06-26T17:14:11;5.00;;;1.30;;
32295;SDS011;18781;51.550;5.418;2023-06-26T17:16:37;5.68;;;1.45;;
32295;SDS011;18781;51.550;5.418;2023-06-26T17:19:02;2.88;;;1.30;;
32295;SDS011;18781;51.550;5.418;2023-06-26T17:21:28;4.35;;;1.20;;
32295;SDS011;18781;51.550;5.418;2023-06-26T17:23:54;5.10;;;1.42;;
32295;SDS011;18781;51.550;5.418;2023-06-26T17:26:19;6.32;;;1.38;;
32295;SDS011;18781;51.550;5.418;2023-06-26T17:28:45;2.88;;;1.00;;
32295;SDS011;18781;51.550;5.418;2023-06-26T17:31:11;3.20;;;1.13;;
32295;SDS011;18781;51.550;5.418;2023-06-26T17:33:37;4.07;;;1.05;;
32295;SDS011;18781;51.550;5.418;2023-06-26T17:36:02;2.92;;;1.00;;
32295;SDS011;18781;51.550;5.418;2023-06-26T17:38:31;5.95;;;1.30;;
32295;SDS011;18781;51.550;5.418;2023-06-26T17:40:58;3.60;;;1.00;;
32295;SDS011;18781;51.550;5.418;2023-06-26T17:43:23;3.58;;;1.08;;
32295;SDS011;18781;51.550;5.418;2023-06-26T17:45:49;3.28;;;1.42;;
32295;SDS011;18781;51.550;5.418;2023-06-26T17:48:14;5.15;;;1.23;;
32295;SDS011;18781;51.550;5.418;2023-06-26T17:50:40;6.10;;;1.20;;
32295;SDS011;18781;51.550;5.418;2023-06-26T17:53:06;3.63;;;1.20;;
32295;SDS011;18781;51.550;5.418;2023-06-26T17:55:32;5.72;;;1.10;;
32295;SDS011;18781;51.550;5.418;2023-06-26T17:57:57;4.65;;;1.17;;
32295;SDS011;18781;51.550;5.418;2023-06-26T18:00:23;2.75;;;1.20;;
32295;SDS011;18781;51.550;5.418;2023-06-26T18:02:49;1.58;;;1.02;;
32295;SDS011;18781;51.550;5.418;2023-06-26T18:05:15;5.25;;;1.20;;
32295;SDS011;18781;51.550;5.418;2023-06-26T18:07:41;4.00;;;1.17;;
32295;SDS011;18781;51.550;5.418;2023-06-26T18:10:07;5.78;;;1.58;;
32295;SDS011;18781;51.550;5.418;2023-06-26T18:12:33;3.15;;;1.38;;
32295;SDS011;18781;51.550;5.418;2023-06-26T18:14:59;4.43;;;1.00;;
32295;SDS011;18781;51.550;5.418;2023-06-26T18:17:27;3.53;;;1.25;;
32295;SDS011;18781;51.550;5.418;2023-06-26T18:19:53;3.92;;;1.23;;
32295;SDS011;18781;51.550;5.418;2023-06-26T18:22:19;4.80;;;1.38;;
32295;SDS011;18781;51.550;5.418;2023-06-26T18:24:45;4.43;;;1.60;;
32295;SDS011;18781;51.550;5.418;2023-06-26T18:27:11;7.28;;;1.60;;
32295;SDS011;18781;51.550;5.418;2023-06-26T18:29:36;6.53;;;1.77;;
32295;SDS011;18781;51.550;5.418;2023-06-26T18:32:02;4.97;;;1.80;;
32295;SDS011;18781;51.550;5.418;2023-06-26T18:34:28;3.33;;;1.38;;
32295;SDS011;18781;51.550;5.418;2023-06-26T18:36:54;6.45;;;1.55;;
32295;SDS011;18781;51.550;5.418;2023-06-26T18:39:22;5.35;;;1.63;;
32295;SDS011;18781;51.550;5.418;2023-06-26T18:41:47;3.60;;;1.40;;
32295;SDS011;18781;51.550;5.418;2023-06-26T18:44:13;3.15;;;1.10;;
32295;SDS011;18781;51.550;5.418;2023-06-26T18:46:39;6.35;;;1.40;;
32295;SDS011;18781;51.550;5.418;2023-06-26T18:49:05;6.80;;;1.58;;
32295;SDS011;18781;51.550;5.418;2023-06-26T18:51:30;4.15;;;1.20;;
32295;SDS011;18781;51.550;5.418;2023-06-26T18:53:57;8.10;;;1.58;;
32295;SDS011;18781;51.550;5.418;2023-06-26T18:56:26;4.75;;;1.50;;
32295;SDS011;18781;51.550;5.418;2023-06-26T18:58:55;3.67;;;1.20;;
32295;SDS011;18781;51.550;5.418;2023-06-26T19:01:21;5.75;;;1.67;;
32295;SDS011;18781;51.550;5.418;2023-06-26T19:03:47;3.70;;;1.42;;
32295;SDS011;18781;51.550;5.418;2023-06-26T19:06:16;4.05;;;1.20;;
32295;SDS011;18781;51.550;5.418;2023-06-26T19:08:42;5.72;;;1.38;;
32295;SDS011;18781;51.550;5.418;2023-06-26T19:11:07;7.78;;;1.40;;
32295;SDS011;18781;51.550;5.418;2023-06-26T19:13:33;4.03;;;1.35;;
32295;SDS011;18781;51.550;5.418;2023-06-26T19:15:59;5.35;;;1.38;;
32295;SDS011;18781;51.550;5.418;2023-06-26T19:18:25;6.10;;;1.20;;
32295;SDS011;18781;51.550;5.418;2023-06-26T19:20:54;6.20;;;1.60;;
32295;SDS011;18781;51.550;5.418;2023-06-26T19:23:19;6.22;;;1.88;;
32295;SDS011;18781;51.550;5.418;2023-06-26T19:25:45;7.32;;;1.50;;
32295;SDS011;18781;51.550;5.418;2023-06-26T19:28:11;9.45;;;2.10;;
32295;SDS011;18781;51.550;5.418;2023-06-26T19:30:38;8.15;;;1.70;;
32295;SDS011;18781;51.550;5.418;2023-06-26T19:33:04;6.10;;;1.55;;
32295;SDS011;18781;51.550;5.418;2023-06-26T19:35:29;5.15;;;1.55;;
32295;SDS011;18781;51.550;5.418;2023-06-26T19:37:55;5.82;;;1.60;;
32295;SDS011;18781;51.550;5.418;2023-06-26T19:40:21;3.55;;;1.50;;
32295;SDS011;18781;51.550;5.418;2023-06-26T19:42:46;5.85;;;1.80;;
32295;SDS011;18781;51.550;5.418;2023-06-26T19:45:12;4.65;;;1.60;;
32295;SDS011;18781;51.550;5.418;2023-06-26T19:47:38;5.47;;;1.80;;
32295;SDS011;18781;51.550;5.418;2023-06-26T19:50:05;3.67;;;1.63;;
32295;SDS011;18781;51.550;5.418;2023-06-26T19:52:31;3.38;;;1.30;;
32295;SDS011;18781;51.550;5.418;2023-06-26T19:54:57;8.85;;;2.00;;
32295;SDS011;18781;51.550;5.418;2023-06-26T19:57:23;7.13;;;1.50;;
32295;SDS011;18781;51.550;5.418;2023-06-26T19:59:49;4.63;;;1.45;;
32295;SDS011;18781;51.550;5.418;2023-06-26T20:02:14;4.97;;;1.55;;
32295;SDS011;18781;51.550;5.418;2023-06-26T20:04:41;6.85;;;1.60;;
32295;SDS011;18781;51.550;5.418;2023-06-26T20:07:06;4.97;;;1.40;;
32295;SDS011;18781;51.550;5.418;2023-06-26T20:09:32;5.63;;;1.63;;
32295;SDS011;18781;51.550;5.418;2023-06-26T20:11:58;4.97;;;1.50;;
32295;SDS011;18781;51.550;5.418;2023-06-26T20:14:24;4.60;;;1.60;;
32295;SDS011;18781;51.550;5.418;2023-06-26T20:16:51;4.38;;;1.52;;
32295;SDS011;18781;51.550;5.418;2023-06-26T20:19:17;5.63;;;1.67;;
32295;SDS011;18781;51.550;5.418;2023-06-26T20:21:42;5.03;;;1.50;;
32295;SDS011;18781;51.550;5.418;2023-06-26T20:24:09;4.38;;;1.50;;
32295;SDS011;18781;51.550;5.418;2023-06-26T20:26:35;4.93;;;1.73;;
32295;SDS011;18781;51.550;5.418;2023-06-26T20:29:00;4.45;;;1.50;;
32295;SDS011;18781;51.550;5.418;2023-06-26T20:31:26;6.97;;;1.45;;
32295;SDS011;18781;51.550;5.418;2023-06-26T20:33:52;4.88;;;1.60;;
32295;SDS011;18781;51.550;5.418;2023-06-26T20:36:18;5.80;;;1.67;;
32295;SDS011;18781;51.550;5.418;2023-06-26T20:38:44;10.52;;;1.83;;
32295;SDS011;18781;51.550;5.418;2023-06-26T20:41:09;6.38;;;1.65;;
32295;SDS011;18781;51.550;5.418;2023-06-26T20:43:35;9.95;;;1.80;;
32295;SDS011;18781;51.550;5.418;2023-06-26T20:46:04;8.97;;;1.70;;
32295;SDS011;18781;51.550;5.418;2023-06-26T20:48:29;4.07;;;1.75;;
32295;SDS011;18781;51.550;5.418;2023-06-26T20:50:55;3.97;;;1.63;;
32295;SDS011;18781;51.550;5.418;2023-06-26T20:53:21;4.22;;;1.73;;
32295;SDS011;18781;51.550;5.418;2023-06-26T20:55:47;8.38;;;1.70;;
32295;SDS011;18781;51.550;5.418;2023-06-26T20:58:13;3.72;;;1.42;;
32295;SDS011;18781;51.550;5.418;2023-06-26T21:00:39;5.82;;;1.80;;
32295;SDS011;18781;51.550;5.418;2023-06-26T21:03:04;5.50;;;1.55;;
32295;SDS011;18781;51.550;5.418;2023-06-26T21:05:30;4.90;;;1.75;;
32295;SDS011;18781;51.550;5.418;2023-06-26T21:07:55;3.72;;;1.73;;
32295;SDS011;18781;51.550;5.418;2023-06-26T21:10:21;5.78;;;1.90;;
32295;SDS011;18781;51.550;5.418;2023-06-26T21:12:47;4.50;;;1.77;;
32295;SDS011;18781;51.550;5.418;2023-06-26T21:15:12;7.88;;;1.63;;
32295;SDS011;18781;51.550;5.418;2023-06-26T21:17:38;6.00;;;1.85;;
32295;SDS011;18781;51.550;5.418;2023-06-26T21:20:03;6.20;;;1.92;;
32295;SDS011;18781;51.550;5.418;2023-06-26T21:22:29;4.60;;;1.63;;
32295;SDS011;18781;51.550;5.418;2023-06-26T21:24:55;9.60;;;1.63;;
32295;SDS011;18781;51.550;5.418;2023-06-26T21:27:21;5.03;;;1.83;;
32295;SDS011;18781;51.550;5.418;2023-06-26T21:29:46;3.28;;;1.90;;
32295;SDS011;18781;51.550;5.418;2023-06-26T21:32:12;5.20;;;2.03;;
32295;SDS011;18781;51.550;5.418;2023-06-26T21:34:38;6.32;;;1.60;;
32295;SDS011;18781;51.550;5.418;2023-06-26T21:37:03;9.45;;;1.83;;
32295;SDS011;18781;51.550;5.418;2023-06-26T21:39:29;12.55;;;2.20;;
32295;SDS011;18781;51.550;5.418;2023-06-26T21:41:55;6.22;;;1.67;;
32295;SDS011;18781;51.550;5.418;2023-06-26T21:44:20;6.10;;;1.95;;
32295;SDS011;18781;51.550;5.418;2023-06-26T21:46:46;3.83;;;1.80;;
32295;SDS011;18781;51.550;5.418;2023-06-26T21:49:11;7.20;;;1.90;;
32295;SDS011;18781;51.550;5.418;2023-06-26T21:51:37;3.55;;;1.75;;
32295;SDS011;18781;51.550;5.418;2023-06-26T21:54:02;7.15;;;2.22;;
32295;SDS011;18781;51.550;5.418;2023-06-26T21:56:28;6.90;;;1.95;;
32295;SDS011;18781;51.550;5.418;2023-06-26T21:58:53;4.10;;;1.90;;
32295;SDS011;18781;51.550;5.418;2023-06-26T22:01:19;7.18;;;1.90;;
32295;SDS011;18781;51.550;5.418;2023-06-26T22:03:45;5.72;;;2.20;;
32295;SDS011;18781;51.550;5.418;2023-06-26T22:06:10;6.20;;;1.92;;
32295;SDS011;18781;51.550;5.418;2023-06-26T22:08:36;5.03;;;1.65;;
32295;SDS011;18781;51.550;5.418;2023-06-26T22:11:02;6.18;;;1.90;;
32295;SDS011;18781;51.550;5.418;2023-06-26T22:13:28;9.85;;;2.42;;
32295;SDS011;18781;51.550;5.418;2023-06-26T22:15:53;7.68;;;1.90;;
32295;SDS011;18781;51.550;5.418;2023-06-26T22:18:19;7.10;;;2.00;;
32295;SDS011;18781;51.550;5.418;2023-06-26T22:20:44;5.43;;;2.28;;
32295;SDS011;18781;51.550;5.418;2023-06-26T22:23:12;4.10;;;1.88;;
32295;SDS011;18781;51.550;5.418;2023-06-26T22:25:37;5.68;;;2.10;;
32295;SDS011;18781;51.550;5.418;2023-06-26T22:28:03;5.88;;;2.08;;
32295;SDS011;18781;51.550;5.418;2023-06-26T22:30:28;7.28;;;2.20;;
32295;SDS011;18781;51.550;5.418;2023-06-26T22:32:54;7.53;;;2.33;;
32295;SDS011;18781;51.550;5.418;2023-06-26T22:35:20;4.43;;;2.45;;
32295;SDS011;18781;51.550;5.418;2023-06-26T22:37:45;7.65;;;2.45;;
32295;SDS011;18781;51.550;5.418;2023-06-26T22:40:12;6.32;;;2.35;;
32295;SDS011;18781;51.550;5.418;2023-06-26T22:42:39;4.50;;;2.33;;
32295;SDS011;18781;51.550;5.418;2023-06-26T22:45:06;10.63;;;2.50;;
32295;SDS011;18781;51.550;5.418;2023-06-26T22:47:32;5.00;;;2.40;;
32295;SDS011;18781;51.550;5.418;2023-06-26T22:49:59;7.97;;;2.08;;
32295;SDS011;18781;51.550;5.418;2023-06-26T22:52:25;5.55;;;2.35;;
32295;SDS011;18781;51.550;5.418;2023-06-26T22:54:54;8.70;;;2.75;;
32295;SDS011;18781;51.550;5.418;2023-06-26T22:57:19;10.70;;;3.22;;
32295;SDS011;18781;51.550;5.418;2023-06-26T22:59:45;7.45;;;2.40;;
32295;SDS011;18781;51.550;5.418;2023-06-26T23:02:12;8.52;;;2.72;;
32295;SDS011;18781;51.550;5.418;2023-06-26T23:04:38;6.43;;;2.28;;
32295;SDS011;18781;51.550;5.418;2023-06-26T23:07:03;8.98;;;2.70;;
32295;SDS011;18781;51.550;5.418;2023-06-26T23:09:29;8.55;;;2.42;;
32295;SDS011;18781;51.550;5.418;2023-06-26T23:11:55;8.77;;;2.85;;
32295;SDS011;18781;51.550;5.418;2023-06-26T23:14:20;8.75;;;2.78;;
32295;SDS011;18781;51.550;5.418;2023-06-26T23:16:49;10.43;;;3.08;;
32295;SDS011;18781;51.550;5.418;2023-06-26T23:19:28;6.53;;;3.00;;
32295;SDS011;18781;51.550;5.418;2023-06-26T23:21:54;9.55;;;3.03;;
32295;SDS011;18781;51.550;5.418;2023-06-26T23:24:20;7.57;;;2.78;;
32295;SDS011;18781;51.550;5.418;2023-06-26T23:26:49;12.82;;;3.17;;
32295;SDS011;18781;51.550;5.418;2023-06-26T23:29:14;12.32;;;3.20;;
32295;SDS011;18781;51.550;5.418;2023-06-26T23:31:43;11.40;;;3.10;;
32295;SDS011;18781;51.550;5.418;2023-06-26T23:34:09;10.00;;;3.03;;
32295;SDS011;18781;51.550;5.418;2023-06-26T23:36:34;7.38;;;3.13;;
32295;SDS011;18781;51.550;5.418;2023-06-26T23:39:04;8.13;;;3.00;;